Karapiperis New Gene — SVA2376 — position and weather

sailwx.info

Track history (hours):
 
Tides and Currents Weather Stations Pressure Air Temp Water Temp Dewpoint Dewpoint Depression Visibility Wind Speed Wind Dir Waves Ship Positions

Karapiperis New Gene

Last reported at 2017-Sep-23 22:46 UTC. Time now 2017-Sep-24 08:45 UTC.
Position N 37°57' E 023°35'.

; draft 4.5 m.

Type: Tug. MMSI: 240925000.

Date/timePositionNaut miles runAvg speedWind from/ knotsBaromVisibWave heightAir tempDewpointWater temp
2017-Sep-23 22:46N 37°57' E 023°35'1 4.2
2017-Sep-23 22:30N 37°57' E 023°36'1 2.5
2017-Sep-23 22:00N 37°58' E 023°34'0 0.0
2017-Sep-23 21:30N 37°58' E 023°34'0 0.0
2017-Sep-23 21:00N 37°58' E 023°34'0 0.0
2017-Sep-23 20:30N 37°58' E 023°34'0 0.0
2017-Sep-23 20:00N 37°58' E 023°34'0 0.0
2017-Sep-22 02:00N 37°58' E 023°34'0 0.0
2017-Sep-22 01:30N 37°58' E 023°34'0 0.0
2017-Sep-22 01:00N 37°58' E 023°34'0 0.0
2017-Sep-22 00:30N 37°58' E 023°34'0 0.0
2017-Sep-22 00:00N 37°58' E 023°34'0 0.0
2017-Sep-21 23:30N 37°58' E 023°34'0 0.0
2017-Sep-21 23:00N 37°58' E 023°34'1 1.0
2017-Sep-21 22:31N 37°57' E 023°35'1 2.1
2017-Sep-21 22:00N 37°57' E 023°36'0 0.4
2017-Sep-21 21:30N 37°57' E 023°36'0 0.0
2017-Sep-21 21:00N 37°57' E 023°36'0 0.6
2017-Sep-21 20:30N 37°57' E 023°36'1 1.8
2017-Sep-21 20:00N 37°57' E 023°35'2 3.0
2017-Sep-21 19:30N 37°58' E 023°33'4 8.4
2017-Sep-21 19:00N 38°02' E 023°33'0 0.4
2017-Sep-21 18:30N 38°02' E 023°33'0 0.0
2017-Sep-21 18:00N 38°02' E 023°33'0 0.0
2017-Sep-21 17:30N 38°02' E 023°33'0 0.0
2017-Sep-21 17:00N 38°02' E 023°33'0 0.0
2017-Sep-21 16:30N 38°02' E 023°33'2 4.3
2017-Sep-21 16:00N 38°02' E 023°30'0 0.0
2017-Sep-21 15:30N 38°02' E 023°30'1 1.4
2017-Sep-21 15:00N 38°01' E 023°31'2 4.2
2017-Sep-21 14:30N 38°00' E 023°33'2 4.1
2017-Sep-21 14:00N 37°58' E 023°33'1 1.5
2017-Sep-21 13:30N 37°58' E 023°33'0 0.2
2017-Sep-21 13:00N 37°58' E 023°33'0 0.0
2017-Sep-21 12:30N 37°58' E 023°33'0 0.0
2017-Sep-21 12:00N 37°58' E 023°33'0 0.0
2017-Sep-21 11:30N 37°58' E 023°33'0 0.0
2017-Sep-21 11:00N 37°58' E 023°33'0 0.0
2017-Sep-21 10:30N 37°58' E 023°33'0 0.0
2017-Sep-21 10:00N 37°58' E 023°33'0 0.0
2017-Sep-21 09:30N 37°58' E 023°33'0 0.0
2017-Sep-21 09:00N 37°58' E 023°33'0 0.0
2017-Sep-21 08:30N 37°58' E 023°33'0 0.0
2017-Sep-21 08:00N 37°58' E 023°33'0 0.0
2017-Sep-21 07:30N 37°58' E 023°33'0 0.0
2017-Sep-21 07:00N 37°58' E 023°33'0 0.0
2017-Sep-21 06:30N 37°58' E 023°33'0 0.0
2017-Sep-21 06:00N 37°58' E 023°33'0 0.8
2017-Sep-21 05:31N 37°58' E 023°33'1 2.5
2017-Sep-21 05:00N 37°58' E 023°34'0 0.0
2017-Sep-21 04:30N 37°58' E 023°34'0 0.0
2017-Sep-21 04:00N 37°58' E 023°34'0 0.0
2017-Sep-21 03:30N 37°58' E 023°34'0 0.0
2017-Sep-21 03:00N 37°58' E 023°34'0 0.0
2017-Sep-20 10:57N 37°58' E 023°34'0 0.0
2017-Sep-20 10:31N 37°58' E 023°34'0 0.0
2017-Sep-20 10:00N 37°58' E 023°34'0 0.0
2017-Sep-20 09:31N 37°58' E 023°34'0 0.0
2017-Sep-20 09:00N 37°58' E 023°34'1 2.4
2017-Sep-20 08:30N 37°57' E 023°33'0 0.4
2017-Sep-20 08:01N 37°57' E 023°33'1 1.1
2017-Sep-20 07:31N 37°58' E 023°33'1 1.5
2017-Sep-20 07:00N 37°58' E 023°34'0 0.0
2017-Sep-20 06:31N 37°58' E 023°34'0 0.0
2017-Sep-20 06:01N 37°58' E 023°34'0 0.0
2017-Sep-20 05:30N 37°58' E 023°34'1 1.3
2017-Sep-20 05:01N 37°57' E 023°35'0 0.4
2017-Sep-20 04:31N 37°57' E 023°35'1 1.6
2017-Sep-20 04:01N 37°56' E 023°35'1 2.6
2017-Sep-20 03:31N 37°58' E 023°34'0 0.0
2017-Sep-20 03:01N 37°58' E 023°34'0 0.0
2017-Sep-19 18:39N 37°58' E 023°34'0 1.2
2017-Sep-19 18:30N 37°57' E 023°35'1 1.9
2017-Sep-19 18:00N 37°57' E 023°36'2 3.0
2017-Sep-19 17:30N 37°56' E 023°37'2 4.8
2017-Sep-19 17:00N 37°58' E 023°34'0 0.0
2017-Sep-19 16:30N 37°58' E 023°34'0 0.0
2017-Sep-19 16:00N 37°58' E 023°34'0 0.0
2017-Sep-19 15:30N 37°58' E 023°34'0 0.0
2017-Sep-19 15:00N 37°58' E 023°34'0 0.0
2017-Sep-19 14:30N 37°58' E 023°34'0 0.0
2017-Sep-19 14:00N 37°58' E 023°34'0 0.0
2017-Sep-19 13:30N 37°58' E 023°34'0 0.0
2017-Sep-19 13:00N 37°58' E 023°34'0 0.0
2017-Sep-19 12:30N 37°58' E 023°34'0 0.0
2017-Sep-19 12:00N 37°58' E 023°34'1 2.1
2017-Sep-19 11:30N 37°57' E 023°36'1 2.1
2017-Sep-19 11:00N 37°58' E 023°34'0 0.0
2017-Sep-19 10:30N 37°58' E 023°34'0 0.0
2017-Sep-19 10:00N 37°58' E 023°34'0 0.0
2017-Sep-19 09:30N 37°58' E 023°34'0 0.0
2017-Sep-19 09:00N 37°58' E 023°34'0 0.0
2017-Sep-19 08:30N 37°58' E 023°34'0 0.0
2017-Sep-19 08:00N 37°58' E 023°34'0 0.0
2017-Sep-19 07:30N 37°58' E 023°34'0 0.0
2017-Sep-19 07:00N 37°58' E 023°34'0 0.0
2017-Sep-19 06:30N 37°58' E 023°34'0 0.8
2017-Sep-19 06:00N 37°57' E 023°35'1 1.9
2017-Sep-19 05:30N 37°57' E 023°36'1 2.9
2017-Sep-19 05:00N 37°56' E 023°36'2 4.7
2017-Sep-19 04:30N 37°58' E 023°34'0 0.0
2017-Sep-19 04:00N 37°58' E 023°34'0 0.0
2017-Sep-19 03:30N 37°58' E 023°34'0 0.0
2017-Sep-19 03:00N 37°58' E 023°34'0 0.0
2017-Sep-17 20:57N 37°58' E 023°34'0 1.1
2017-Sep-17 20:31N 37°57' E 023°35'1 1.5
2017-Sep-17 20:01N 37°57' E 023°36'0 0.7
2017-Sep-17 19:31N 37°57' E 023°36'0 0.2
2017-Sep-17 19:01N 37°57' E 023°36'0 0.9
2017-Sep-17 18:30N 37°57' E 023°36'1 2.4
2017-Sep-17 18:00N 37°58' E 023°34'0 0.0
2017-Sep-17 17:30N 37°58' E 023°34'0 0.0
2017-Sep-17 12:08N 37°58' E 023°34'0 0.0
2017-Sep-17 12:00N 37°58' E 023°34'0 0.0
2017-Sep-17 11:30N 37°58' E 023°34'0 0.0
2017-Sep-17 11:00N 37°58' E 023°34'0 0.0
2017-Sep-17 10:30N 37°58' E 023°34'0 0.0
2017-Sep-17 10:00N 37°58' E 023°34'0 0.0
2017-Sep-17 09:30N 37°58' E 023°34'0 0.0
2017-Sep-17 09:00N 37°58' E 023°34'0 0.0
2017-Sep-17 08:30N 37°58' E 023°34'0 0.0
2017-Sep-17 08:00N 37°58' E 023°34'0 0.0
2017-Sep-17 07:30N 37°58' E 023°34'0 0.0
2017-Sep-17 07:00N 37°58' E 023°34'0 0.0
2017-Sep-17 06:30N 37°58' E 023°34'0 0.0
2017-Sep-17 06:00N 37°58' E 023°34'0 0.0
2017-Sep-17 05:30N 37°58' E 023°34'0 0.5
2017-Sep-17 05:01N 37°57' E 023°35'1 1.5
2017-Sep-17 04:30N 37°57' E 023°35'0 0.9
2017-Sep-17 04:00N 37°57' E 023°35'1 1.1
2017-Sep-17 03:30N 37°58' E 023°34'0 0.0
2017-Sep-17 03:00N 37°58' E 023°34'0 0.0
2017-Sep-17 02:30N 37°58' E 023°34'0 0.0
2017-Sep-17 02:00N 37°58' E 023°34'0 0.0
2017-Sep-17 01:30N 37°58' E 023°34'0 0.0
2017-Sep-17 01:00N 37°58' E 023°34'0 0.0
2017-Sep-17 00:31N 37°58' E 023°34'0 0.0
2017-Sep-17 00:00N 37°58' E 023°34'0 1.0
2017-Sep-16 23:30N 37°57' E 023°35'0 1.0
2017-Sep-16 23:00N 37°58' E 023°34'0 0.0
2017-Sep-16 22:30N 37°58' E 023°34'0 0.0
2017-Sep-16 22:00N 37°58' E 023°34'0 0.0
2017-Sep-16 21:30N 37°58' E 023°34'1 1.6
2017-Sep-16 21:00N 37°57' E 023°35'2 3.2
2017-Sep-16 20:30N 37°56' E 023°35'2 3.0
2017-Sep-16 20:00N 37°57' E 023°35'1 1.2
2017-Sep-16 19:30N 37°57' E 023°35'0 0.4
2017-Sep-16 19:00N 37°58' E 023°34'0 0.0
2017-Sep-16 18:30N 37°58' E 023°34'0 0.0
2017-Sep-16 18:00N 37°58' E 023°34'0 0.0
2017-Sep-16 17:30N 37°58' E 023°34'0 0.0
2017-Sep-16 17:00N 37°58' E 023°34'0 0.0
2017-Sep-16 16:30N 37°58' E 023°34'0 0.0
2017-Sep-16 16:00N 37°58' E 023°34'0 0.0
2017-Sep-16 15:30N 37°58' E 023°34'0 0.0
2017-Sep-16 15:00N 37°58' E 023°34'2 4.1
2017-Sep-16 14:31N 37°56' E 023°37'2 4.0
2017-Sep-16 14:00N 37°58' E 023°34'0 0.0
2017-Sep-16 13:30N 37°58' E 023°34'0 0.0
2017-Sep-16 13:00N 37°58' E 023°34'0 0.0
2017-Sep-16 12:30N 37°58' E 023°34'1 1.4
2017-Sep-16 12:00N 37°58' E 023°34'0 0.1
2017-Sep-16 11:31N 37°57' E 023°34'0 0.2
2017-Sep-16 11:00N 37°58' E 023°34'1 1.4
2017-Sep-16 10:30N 37°58' E 023°34'0 0.0
2017-Sep-16 10:01N 37°58' E 023°34'0 0.0
2017-Sep-16 09:30N 37°58' E 023°34'0 0.0
2017-Sep-16 09:00N 37°58' E 023°34'0 0.0
2017-Sep-16 08:30N 37°58' E 023°34'0 0.0
2017-Sep-16 08:00N 37°58' E 023°34'0 0.0
2017-Sep-16 07:30N 37°58' E 023°34'0 0.0
2017-Sep-16 07:00N 37°58' E 023°34'0 0.0
2017-Sep-16 06:30N 37°58' E 023°34'0 0.0
2017-Sep-16 06:00N 37°58' E 023°34'1 2.1
2017-Sep-16 05:30N 37°57' E 023°36'1 1.4
2017-Sep-16 05:00N 37°57' E 023°35'1 1.2
2017-Sep-16 04:30N 37°58' E 023°34'0 0.0
2017-Sep-16 04:00N 37°58' E 023°34'0 0.0
2017-Sep-16 03:30N 37°58' E 023°34'0 0.0
2017-Sep-16 03:00N 37°58' E 023°34'0 0.0
2017-Sep-15 10:59N 37°58' E 023°34'0 0.0
2017-Sep-15 10:31N 37°58' E 023°34'0 0.0
2017-Sep-15 10:00N 37°58' E 023°34'0 0.0
2017-Sep-15 09:30N 37°58' E 023°34'2 3.4
2017-Sep-15 09:01N 37°59' E 023°33'2 3.4
2017-Sep-15 08:30N 37°58' E 023°34'0 0.0
2017-Sep-15 08:00N 37°58' E 023°34'0 0.0
2017-Sep-15 07:31N 37°58' E 023°34'0 0.0
2017-Sep-15 07:00N 37°58' E 023°34'0 0.0
2017-Sep-15 06:30N 37°58' E 023°34'0 0.0
2017-Sep-15 06:00N 37°58' E 023°34'0 0.1
2017-Sep-15 05:31N 37°58' E 023°34'0 0.0
2017-Sep-15 05:00N 37°58' E 023°34'0 0.0
2017-Sep-15 04:30N 37°58' E 023°34'0 0.0
2017-Sep-15 04:00N 37°58' E 023°34'0 0.0
2017-Sep-15 03:31N 37°58' E 023°34'0 0.0
2017-Sep-15 03:01N 37°58' E 023°34'0 0.0
2017-Sep-15 02:31N 37°58' E 023°34'0 0.0
2017-Sep-15 02:00N 37°58' E 023°34'0 0.0
2017-Sep-15 01:30N 37°58' E 023°34'0 0.0
2017-Sep-15 01:01N 37°58' E 023°34'0 1.0
2017-Sep-15 00:30N 37°57' E 023°34'4 8.3
2017-Sep-15 00:00N 38°01' E 023°31'5 9.7
2017-Sep-14 23:30N 37°59' E 023°25'2 3.8
2017-Sep-14 23:00N 37°58' E 023°23'0 0.2
2017-Sep-14 22:30N 37°58' E 023°23'1 2.5
2017-Sep-14 22:01N 37°58' E 023°24'0 0.0
2017-Sep-14 21:30N 37°58' E 023°24'0 0.0
2017-Sep-14 21:00N 37°58' E 023°24'0 0.0
2017-Sep-14 20:30N 37°58' E 023°24'0 0.0
2017-Sep-14 20:00N 37°58' E 023°24'0 0.0
2017-Sep-14 19:31N 37°58' E 023°24'0 0.0
2017-Sep-14 19:00N 37°58' E 023°24'0 0.0
2017-Sep-14 18:31N 37°58' E 023°24'0 0.0
2017-Sep-14 18:01N 37°58' E 023°24'0 0.0
2017-Sep-14 17:30N 37°58' E 023°24'0 0.0
2017-Sep-14 17:00N 37°58' E 023°24'0 0.0
2017-Sep-14 16:30N 37°58' E 023°24'0 0.0
2017-Sep-14 16:00N 37°58' E 023°24'0 0.0
2017-Sep-14 15:30N 37°58' E 023°24'0 0.0
2017-Sep-14 15:00N 37°58' E 023°24'0 0.0
2017-Sep-14 14:31N 37°58' E 023°24'0 0.0
2017-Sep-14 14:00N 37°58' E 023°24'0 0.0
2017-Sep-14 13:31N 37°58' E 023°24'0 0.0
2017-Sep-14 13:00N 37°58' E 023°24'0 0.0
2017-Sep-14 12:30N 37°58' E 023°24'0 0.0
2017-Sep-14 12:00N 37°58' E 023°24'0 0.0
2017-Sep-14 11:30N 37°58' E 023°24'0 0.0
2017-Sep-14 11:00N 37°58' E 023°24'0 0.0
2017-Sep-14 10:30N 37°58' E 023°24'0 0.0
2017-Sep-14 10:00N 37°58' E 023°24'0 0.0
2017-Sep-14 09:30N 37°58' E 023°24'0 0.0
2017-Sep-14 09:01N 37°58' E 023°24'0 0.0
2017-Sep-14 08:30N 37°58' E 023°24'0 0.0
2017-Sep-14 08:00N 37°58' E 023°24'0 0.0
2017-Sep-14 07:31N 37°58' E 023°24'0 0.0
2017-Sep-14 07:00N 37°58' E 023°24'0 0.0
2017-Sep-14 06:30N 37°58' E 023°24'0 0.0
2017-Sep-14 06:00N 37°58' E 023°24'0 0.0
2017-Sep-14 05:30N 37°58' E 023°24'0 0.0
2017-Sep-14 05:00N 37°58' E 023°24'0 0.0
2017-Sep-14 04:30N 37°58' E 023°24'0 0.0
2017-Sep-14 04:00N 37°58' E 023°24'0 0.0
2017-Sep-14 03:31N 37°58' E 023°24'0 0.0
2017-Sep-14 03:01N 37°58' E 023°24'0 0.0
2017-Sep-14 02:30N 37°58' E 023°24'0 0.0
2017-Sep-14 02:00N 37°58' E 023°24'0 0.0
2017-Sep-14 01:30N 37°58' E 023°24'0 0.0
2017-Sep-14 01:00N 37°58' E 023°24'0 0.0
2017-Sep-14 00:30N 37°58' E 023°24'0 0.0
2017-Sep-14 00:00N 37°58' E 023°24'0 0.0
2017-Sep-13 23:30N 37°58' E 023°24'0 0.0
2017-Sep-13 23:00N 37°58' E 023°24'  
Track history (hours):
 
Tides and Currents Weather Stations Pressure Air Temp Water Temp Dewpoint Dewpoint Depression Visibility Wind Speed Wind Dir Waves Ship Positions

Karapiperis New Gene

Last reported at 2017-Sep-23 22:46 UTC. Time now 2017-Sep-24 08:45 UTC.
Position N 37°57' E 023°35'.

; draft 4.5 m.

Type: Tug. MMSI: 240925000.

Date/timePositionNaut miles runAvg speedWind from/ knotsBaromVisibWave heightAir tempDewpointWater temp
2017-Sep-23 22:46N 37°57' E 023°35'1 4.2
2017-Sep-23 22:30N 37°57' E 023°36'1 2.5
2017-Sep-23 22:00N 37°58' E 023°34'0 0.0
2017-Sep-23 21:30N 37°58' E 023°34'0 0.0
2017-Sep-23 21:00N 37°58' E 023°34'0 0.0
2017-Sep-23 20:30N 37°58' E 023°34'0 0.0
2017-Sep-23 20:00N 37°58' E 023°34'0 0.0
2017-Sep-22 02:00N 37°58' E 023°34'0 0.0
2017-Sep-22 01:30N 37°58' E 023°34'0 0.0
2017-Sep-22 01:00N 37°58' E 023°34'0 0.0
2017-Sep-22 00:30N 37°58' E 023°34'0 0.0
2017-Sep-22 00:00N 37°58' E 023°34'0 0.0
2017-Sep-21 23:30N 37°58' E 023°34'0 0.0
2017-Sep-21 23:00N 37°58' E 023°34'1 1.0
2017-Sep-21 22:31N 37°57' E 023°35'1 2.1
2017-Sep-21 22:00N 37°57' E 023°36'0 0.4
2017-Sep-21 21:30N 37°57' E 023°36'0 0.0
2017-Sep-21 21:00N 37°57' E 023°36'0 0.6
2017-Sep-21 20:30N 37°57' E 023°36'1 1.8
2017-Sep-21 20:00N 37°57' E 023°35'2 3.0
2017-Sep-21 19:30N 37°58' E 023°33'4 8.4
2017-Sep-21 19:00N 38°02' E 023°33'0 0.4
2017-Sep-21 18:30N 38°02' E 023°33'0 0.0
2017-Sep-21 18:00N 38°02' E 023°33'0 0.0
2017-Sep-21 17:30N 38°02' E 023°33'0 0.0
2017-Sep-21 17:00N 38°02' E 023°33'0 0.0
2017-Sep-21 16:30N 38°02' E 023°33'2 4.3
2017-Sep-21 16:00N 38°02' E 023°30'0 0.0
2017-Sep-21 15:30N 38°02' E 023°30'1 1.4
2017-Sep-21 15:00N 38°01' E 023°31'2 4.2
2017-Sep-21 14:30N 38°00' E 023°33'2 4.1
2017-Sep-21 14:00N 37°58' E 023°33'1 1.5
2017-Sep-21 13:30N 37°58' E 023°33'0 0.2
2017-Sep-21 13:00N 37°58' E 023°33'0 0.0
2017-Sep-21 12:30N 37°58' E 023°33'0 0.0
2017-Sep-21 12:00N 37°58' E 023°33'0 0.0
2017-Sep-21 11:30N 37°58' E 023°33'0 0.0
2017-Sep-21 11:00N 37°58' E 023°33'0 0.0
2017-Sep-21 10:30N 37°58' E 023°33'0 0.0
2017-Sep-21 10:00N 37°58' E 023°33'0 0.0
2017-Sep-21 09:30N 37°58' E 023°33'0 0.0
2017-Sep-21 09:00N 37°58' E 023°33'0 0.0
2017-Sep-21 08:30N 37°58' E 023°33'0 0.0
2017-Sep-21 08:00N 37°58' E 023°33'0 0.0
2017-Sep-21 07:30N 37°58' E 023°33'0 0.0
2017-Sep-21 07:00N 37°58' E 023°33'0 0.0
2017-Sep-21 06:30N 37°58' E 023°33'0 0.0
2017-Sep-21 06:00N 37°58' E 023°33'0 0.8
2017-Sep-21 05:31N 37°58' E 023°33'1 2.5
2017-Sep-21 05:00N 37°58' E 023°34'0 0.0
2017-Sep-21 04:30N 37°58' E 023°34'0 0.0
2017-Sep-21 04:00N 37°58' E 023°34'0 0.0
2017-Sep-21 03:30N 37°58' E 023°34'0 0.0
2017-Sep-21 03:00N 37°58' E 023°34'0 0.0
2017-Sep-20 10:57N 37°58' E 023°34'0 0.0
2017-Sep-20 10:31N 37°58' E 023°34'0 0.0
2017-Sep-20 10:00N 37°58' E 023°34'0 0.0
2017-Sep-20 09:31N 37°58' E 023°34'0 0.0
2017-Sep-20 09:00N 37°58' E 023°34'1 2.4
2017-Sep-20 08:30N 37°57' E 023°33'0 0.4
2017-Sep-20 08:01N 37°57' E 023°33'1 1.1
2017-Sep-20 07:31N 37°58' E 023°33'1 1.5
2017-Sep-20 07:00N 37°58' E 023°34'0 0.0
2017-Sep-20 06:31N 37°58' E 023°34'0 0.0
2017-Sep-20 06:01N 37°58' E 023°34'0 0.0
2017-Sep-20 05:30N 37°58' E 023°34'1 1.3
2017-Sep-20 05:01N 37°57' E 023°35'0 0.4
2017-Sep-20 04:31N 37°57' E 023°35'1 1.6
2017-Sep-20 04:01N 37°56' E 023°35'1 2.6
2017-Sep-20 03:31N 37°58' E 023°34'0 0.0
2017-Sep-20 03:01N 37°58' E 023°34'0 0.0
2017-Sep-19 18:39N 37°58' E 023°34'0 1.2
2017-Sep-19 18:30N 37°57' E 023°35'1 1.9
2017-Sep-19 18:00N 37°57' E 023°36'2 3.0
2017-Sep-19 17:30N 37°56' E 023°37'2 4.8
2017-Sep-19 17:00N 37°58' E 023°34'0 0.0
2017-Sep-19 16:30N 37°58' E 023°34'0 0.0
2017-Sep-19 16:00N 37°58' E 023°34'0 0.0
2017-Sep-19 15:30N 37°58' E 023°34'0 0.0
2017-Sep-19 15:00N 37°58' E 023°34'0 0.0
2017-Sep-19 14:30N 37°58' E 023°34'0 0.0
2017-Sep-19 14:00N 37°58' E 023°34'0 0.0
2017-Sep-19 13:30N 37°58' E 023°34'0 0.0
2017-Sep-19 13:00N 37°58' E 023°34'0 0.0
2017-Sep-19 12:30N 37°58' E 023°34'0 0.0
2017-Sep-19 12:00N 37°58' E 023°34'1 2.1
2017-Sep-19 11:30N 37°57' E 023°36'1 2.1
2017-Sep-19 11:00N 37°58' E 023°34'0 0.0
2017-Sep-19 10:30N 37°58' E 023°34'0 0.0
2017-Sep-19 10:00N 37°58' E 023°34'0 0.0
2017-Sep-19 09:30N 37°58' E 023°34'0 0.0
2017-Sep-19 09:00N 37°58' E 023°34'0 0.0
2017-Sep-19 08:30N 37°58' E 023°34'0 0.0
2017-Sep-19 08:00N 37°58' E 023°34'0 0.0
2017-Sep-19 07:30N 37°58' E 023°34'0 0.0
2017-Sep-19 07:00N 37°58' E 023°34'0 0.0
2017-Sep-19 06:30N 37°58' E 023°34'0 0.8
2017-Sep-19 06:00N 37°57' E 023°35'1 1.9
2017-Sep-19 05:30N 37°57' E 023°36'1 2.9
2017-Sep-19 05:00N 37°56' E 023°36'2 4.7
2017-Sep-19 04:30N 37°58' E 023°34'0 0.0
2017-Sep-19 04:00N 37°58' E 023°34'0 0.0
2017-Sep-19 03:30N 37°58' E 023°34'0 0.0
2017-Sep-19 03:00N 37°58' E 023°34'0 0.0
2017-Sep-17 20:57N 37°58' E 023°34'0 1.1
2017-Sep-17 20:31N 37°57' E 023°35'1 1.5
2017-Sep-17 20:01N 37°57' E 023°36'0 0.7
2017-Sep-17 19:31N 37°57' E 023°36'0 0.2
2017-Sep-17 19:01N 37°57' E 023°36'0 0.9
2017-Sep-17 18:30N 37°57' E 023°36'1 2.4
2017-Sep-17 18:00N 37°58' E 023°34'0 0.0
2017-Sep-17 17:30N 37°58' E 023°34'0 0.0
2017-Sep-17 12:08N 37°58' E 023°34'0 0.0
2017-Sep-17 12:00N 37°58' E 023°34'0 0.0
2017-Sep-17 11:30N 37°58' E 023°34'0 0.0
2017-Sep-17 11:00N 37°58' E 023°34'0 0.0
2017-Sep-17 10:30N 37°58' E 023°34'0 0.0
2017-Sep-17 10:00N 37°58' E 023°34'0 0.0
2017-Sep-17 09:30N 37°58' E 023°34'0 0.0
2017-Sep-17 09:00N 37°58' E 023°34'0 0.0
2017-Sep-17 08:30N 37°58' E 023°34'0 0.0
2017-Sep-17 08:00N 37°58' E 023°34'0 0.0
2017-Sep-17 07:30N 37°58' E 023°34'0 0.0
2017-Sep-17 07:00N 37°58' E 023°34'0 0.0
2017-Sep-17 06:30N 37°58' E 023°34'0 0.0
2017-Sep-17 06:00N 37°58' E 023°34'0 0.0
2017-Sep-17 05:30N 37°58' E 023°34'0 0.5
2017-Sep-17 05:01N 37°57' E 023°35'1 1.5
2017-Sep-17 04:30N 37°57' E 023°35'0 0.9
2017-Sep-17 04:00N 37°57' E 023°35'1 1.1
2017-Sep-17 03:30N 37°58' E 023°34'0 0.0
2017-Sep-17 03:00N 37°58' E 023°34'0 0.0
2017-Sep-17 02:30N 37°58' E 023°34'0 0.0
2017-Sep-17 02:00N 37°58' E 023°34'0 0.0
2017-Sep-17 01:30N 37°58' E 023°34'0 0.0
2017-Sep-17 01:00N 37°58' E 023°34'0 0.0
2017-Sep-17 00:31N 37°58' E 023°34'0 0.0
2017-Sep-17 00:00N 37°58' E 023°34'0 1.0
2017-Sep-16 23:30N 37°57' E 023°35'0 1.0
2017-Sep-16 23:00N 37°58' E 023°34'0 0.0
2017-Sep-16 22:30N 37°58' E 023°34'0 0.0
2017-Sep-16 22:00N 37°58' E 023°34'0 0.0
2017-Sep-16 21:30N 37°58' E 023°34'1 1.6
2017-Sep-16 21:00N 37°57' E 023°35'2 3.2
2017-Sep-16 20:30N 37°56' E 023°35'2 3.0
2017-Sep-16 20:00N 37°57' E 023°35'1 1.2
2017-Sep-16 19:30N 37°57' E 023°35'0 0.4
2017-Sep-16 19:00N 37°58' E 023°34'0 0.0
2017-Sep-16 18:30N 37°58' E 023°34'0 0.0
2017-Sep-16 18:00N 37°58' E 023°34'0 0.0
2017-Sep-16 17:30N 37°58' E 023°34'0 0.0
2017-Sep-16 17:00N 37°58' E 023°34'0 0.0
2017-Sep-16 16:30N 37°58' E 023°34'0 0.0
2017-Sep-16 16:00N 37°58' E 023°34'0 0.0
2017-Sep-16 15:30N 37°58' E 023°34'0 0.0
2017-Sep-16 15:00N 37°58' E 023°34'2 4.1
2017-Sep-16 14:31N 37°56' E 023°37'2 4.0
2017-Sep-16 14:00N 37°58' E 023°34'0 0.0
2017-Sep-16 13:30N 37°58' E 023°34'0 0.0
2017-Sep-16 13:00N 37°58' E 023°34'0 0.0
2017-Sep-16 12:30N 37°58' E 023°34'1 1.4
2017-Sep-16 12:00N 37°58' E 023°34'0 0.1
2017-Sep-16 11:31N 37°57' E 023°34'0 0.2
2017-Sep-16 11:00N 37°58' E 023°34'1 1.4
2017-Sep-16 10:30N 37°58' E 023°34'0 0.0
2017-Sep-16 10:01N 37°58' E 023°34'0 0.0
2017-Sep-16 09:30N 37°58' E 023°34'0 0.0
2017-Sep-16 09:00N 37°58' E 023°34'0 0.0
2017-Sep-16 08:30N 37°58' E 023°34'0 0.0
2017-Sep-16 08:00N 37°58' E 023°34'0 0.0
2017-Sep-16 07:30N 37°58' E 023°34'0 0.0
2017-Sep-16 07:00N 37°58' E 023°34'0 0.0
2017-Sep-16 06:30N 37°58' E 023°34'0 0.0
2017-Sep-16 06:00N 37°58' E 023°34'1 2.1
2017-Sep-16 05:30N 37°57' E 023°36'1 1.4
2017-Sep-16 05:00N 37°57' E 023°35'1 1.2
2017-Sep-16 04:30N 37°58' E 023°34'0 0.0
2017-Sep-16 04:00N 37°58' E 023°34'0 0.0
2017-Sep-16 03:30N 37°58' E 023°34'0 0.0
2017-Sep-16 03:00N 37°58' E 023°34'0 0.0
2017-Sep-15 10:59N 37°58' E 023°34'0 0.0
2017-Sep-15 10:31N 37°58' E 023°34'0 0.0
2017-Sep-15 10:00N 37°58' E 023°34'0 0.0
2017-Sep-15 09:30N 37°58' E 023°34'2 3.4
2017-Sep-15 09:01N 37°59' E 023°33'2 3.4
2017-Sep-15 08:30N 37°58' E 023°34'0 0.0
2017-Sep-15 08:00N 37°58' E 023°34'0 0.0
2017-Sep-15 07:31N 37°58' E 023°34'0 0.0
2017-Sep-15 07:00N 37°58' E 023°34'0 0.0
2017-Sep-15 06:30N 37°58' E 023°34'0 0.0
2017-Sep-15 06:00N 37°58' E 023°34'0 0.1
2017-Sep-15 05:31N 37°58' E 023°34'0 0.0
2017-Sep-15 05:00N 37°58' E 023°34'0 0.0
2017-Sep-15 04:30N 37°58' E 023°34'0 0.0
2017-Sep-15 04:00N 37°58' E 023°34'0 0.0
2017-Sep-15 03:31N 37°58' E 023°34'0 0.0
2017-Sep-15 03:01N 37°58' E 023°34'0 0.0
2017-Sep-15 02:31N 37°58' E 023°34'0 0.0
2017-Sep-15 02:00N 37°58' E 023°34'0 0.0
2017-Sep-15 01:30N 37°58' E 023°34'0 0.0
2017-Sep-15 01:01N 37°58' E 023°34'0 1.0
2017-Sep-15 00:30N 37°57' E 023°34'4 8.3
2017-Sep-15 00:00N 38°01' E 023°31'5 9.7
2017-Sep-14 23:30N 37°59' E 023°25'2 3.8
2017-Sep-14 23:00N 37°58' E 023°23'0 0.2
2017-Sep-14 22:30N 37°58' E 023°23'1 2.5
2017-Sep-14 22:01N 37°58' E 023°24'0 0.0
2017-Sep-14 21:30N 37°58' E 023°24'0 0.0
2017-Sep-14 21:00N 37°58' E 023°24'0 0.0
2017-Sep-14 20:30N 37°58' E 023°24'0 0.0
2017-Sep-14 20:00N 37°58' E 023°24'0 0.0
2017-Sep-14 19:31N 37°58' E 023°24'0 0.0
2017-Sep-14 19:00N 37°58' E 023°24'0 0.0
2017-Sep-14 18:31N 37°58' E 023°24'0 0.0
2017-Sep-14 18:01N 37°58' E 023°24'0 0.0
2017-Sep-14 17:30N 37°58' E 023°24'0 0.0
2017-Sep-14 17:00N 37°58' E 023°24'0 0.0
2017-Sep-14 16:30N 37°58' E 023°24'0 0.0
2017-Sep-14 16:00N 37°58' E 023°24'0 0.0
2017-Sep-14 15:30N 37°58' E 023°24'0 0.0
2017-Sep-14 15:00N 37°58' E 023°24'0 0.0
2017-Sep-14 14:31N 37°58' E 023°24'0 0.0
2017-Sep-14 14:00N 37°58' E 023°24'0 0.0
2017-Sep-14 13:31N 37°58' E 023°24'0 0.0
2017-Sep-14 13:00N 37°58' E 023°24'0 0.0
2017-Sep-14 12:30N 37°58' E 023°24'0 0.0
2017-Sep-14 12:00N 37°58' E 023°24'0 0.0
2017-Sep-14 11:30N 37°58' E 023°24'0 0.0
2017-Sep-14 11:00N 37°58' E 023°24'0 0.0
2017-Sep-14 10:30N 37°58' E 023°24'0 0.0
2017-Sep-14 10:00N 37°58' E 023°24'0 0.0
2017-Sep-14 09:30N 37°58' E 023°24'0 0.0
2017-Sep-14 09:01N 37°58' E 023°24'0 0.0
2017-Sep-14 08:30N 37°58' E 023°24'0 0.0
2017-Sep-14 08:00N 37°58' E 023°24'0 0.0
2017-Sep-14 07:31N 37°58' E 023°24'0 0.0
2017-Sep-14 07:00N 37°58' E 023°24'0 0.0
2017-Sep-14 06:30N 37°58' E 023°24'0 0.0
2017-Sep-14 06:00N 37°58' E 023°24'0 0.0
2017-Sep-14 05:30N 37°58' E 023°24'0 0.0
2017-Sep-14 05:00N 37°58' E 023°24'0 0.0
2017-Sep-14 04:30N 37°58' E 023°24'0 0.0
2017-Sep-14 04:00N 37°58' E 023°24'0 0.0
2017-Sep-14 03:31N 37°58' E 023°24'0 0.0
2017-Sep-14 03:01N 37°58' E 023°24'0 0.0
2017-Sep-14 02:30N 37°58' E 023°24'0 0.0
2017-Sep-14 02:00N 37°58' E 023°24'0 0.0
2017-Sep-14 01:30N 37°58' E 023°24'0 0.0
2017-Sep-14 01:00N 37°58' E 023°24'0 0.0
2017-Sep-14 00:30N 37°58' E 023°24'0 0.0
2017-Sep-14 00:00N 37°58' E 023°24'0 0.0
2017-Sep-13 23:30N 37°58' E 023°24'0 0.0
2017-Sep-13 23:00N 37°58' E 023°24'  

Dump ship's entire track history